sensor_id;sensor_type;location;lat;lon;timestamp;P1;durP1;ratioP1;P2;durP2;ratioP2
57858;SDS011;49153;45.568;11.894;2022-08-01T00:01:47;3.08;;;2.65;;
57858;SDS011;49153;45.568;11.894;2022-08-01T00:04:18;4.93;;;3.37;;
57858;SDS011;49153;45.568;11.894;2022-08-01T00:07:07;3.38;;;2.72;;
57858;SDS011;49153;45.568;11.894;2022-08-01T00:09:51;4.88;;;3.83;;
57858;SDS011;49153;45.568;11.894;2022-08-01T00:12:38;3.67;;;3.20;;
57858;SDS011;49153;45.568;11.894;2022-08-01T00:15:12;3.45;;;3.15;;
57858;SDS011;49153;45.568;11.894;2022-08-01T00:20:20;4.40;;;3.35;;
57858;SDS011;49153;45.568;11.894;2022-08-01T00:25:27;4.00;;;3.55;;
57858;SDS011;49153;45.568;11.894;2022-08-01T00:28:23;4.40;;;3.90;;
57858;SDS011;49153;45.568;11.894;2022-08-01T00:31:32;4.55;;;3.60;;
57858;SDS011;49153;45.568;11.894;2022-08-01T00:34:30;4.40;;;3.40;;
57858;SDS011;49153;45.568;11.894;2022-08-01T00:37:23;4.18;;;3.63;;
57858;SDS011;49153;45.568;11.894;2022-08-01T00:40:31;4.88;;;3.95;;
57858;SDS011;49153;45.568;11.894;2022-08-01T00:43:18;4.47;;;4.07;;
57858;SDS011;49153;45.568;11.894;2022-08-01T00:45:45;5.32;;;3.78;;
57858;SDS011;49153;45.568;11.894;2022-08-01T00:50:59;4.75;;;4.13;;
57858;SDS011;49153;45.568;11.894;2022-08-01T00:53:50;7.78;;;4.97;;
57858;SDS011;49153;45.568;11.894;2022-08-01T00:58:59;5.95;;;5.07;;
57858;SDS011;49153;45.568;11.894;2022-08-01T01:02:05;5.95;;;5.13;;
57858;SDS011;49153;45.568;11.894;2022-08-01T01:05:16;6.75;;;5.20;;
57858;SDS011;49153;45.568;11.894;2022-08-01T01:07:59;5.95;;;5.00;;
57858;SDS011;49153;45.568;11.894;2022-08-01T01:11:13;6.85;;;5.15;;
57858;SDS011;49153;45.568;11.894;2022-08-01T01:14:00;7.45;;;4.78;;
57858;SDS011;49153;45.568;11.894;2022-08-01T01:16:51;5.63;;;5.13;;
57858;SDS011;49153;45.568;11.894;2022-08-01T01:19:47;6.35;;;5.15;;
57858;SDS011;49153;45.568;11.894;2022-08-01T01:29:41;6.97;;;5.72;;
57858;SDS011;49153;45.568;11.894;2022-08-01T01:32:39;7.25;;;6.05;;
57858;SDS011;49153;45.568;11.894;2022-08-01T01:35:28;6.72;;;6.05;;
57858;SDS011;49153;45.568;11.894;2022-08-01T01:38:05;6.70;;;5.55;;
57858;SDS011;49153;45.568;11.894;2022-08-01T01:40:40;7.15;;;5.85;;
57858;SDS011;49153;45.568;11.894;2022-08-01T01:47:06;7.93;;;6.53;;
57858;SDS011;49153;45.568;11.894;2022-08-01T01:49:58;8.10;;;6.38;;
57858;SDS011;49153;45.568;11.894;2022-08-01T01:53:17;7.47;;;6.78;;
57858;SDS011;49153;45.568;11.894;2022-08-01T01:56:17;8.13;;;7.05;;
57858;SDS011;49153;45.568;11.894;2022-08-01T01:59:20;7.38;;;6.68;;
57858;SDS011;49153;45.568;11.894;2022-08-01T02:02:18;7.40;;;6.63;;
57858;SDS011;49153;45.568;11.894;2022-08-01T02:05:05;8.27;;;6.65;;
57858;SDS011;49153;45.568;11.894;2022-08-01T02:11:21;9.15;;;7.10;;
57858;SDS011;49153;45.568;11.894;2022-08-01T02:13:55;7.63;;;6.70;;
57858;SDS011;49153;45.568;11.894;2022-08-01T02:16:36;8.43;;;7.63;;
57858;SDS011;49153;45.568;11.894;2022-08-01T02:19:14;8.25;;;6.53;;
57858;SDS011;49153;45.568;11.894;2022-08-01T02:22:02;8.02;;;6.85;;
57858;SDS011;49153;45.568;11.894;2022-08-01T02:24:44;7.35;;;6.55;;
57858;SDS011;49153;45.568;11.894;2022-08-01T02:28:03;7.20;;;6.43;;
57858;SDS011;49153;45.568;11.894;2022-08-01T02:30:37;10.10;;;8.18;;
57858;SDS011;49153;45.568;11.894;2022-08-01T02:33:18;9.35;;;7.25;;
57858;SDS011;49153;45.568;11.894;2022-08-01T02:36:16;7.90;;;7.10;;
57858;SDS011;49153;45.568;11.894;2022-08-01T02:39:13;8.75;;;7.85;;
57858;SDS011;49153;45.568;11.894;2022-08-01T02:41:57;7.88;;;7.00;;
57858;SDS011;49153;45.568;11.894;2022-08-01T02:44:41;7.05;;;6.07;;
57858;SDS011;49153;45.568;11.894;2022-08-01T02:47:12;7.22;;;6.47;;
57858;SDS011;49153;45.568;11.894;2022-08-01T02:50:12;8.15;;;6.47;;
57858;SDS011;49153;45.568;11.894;2022-08-01T02:52:42;9.25;;;7.50;;
57858;SDS011;49153;45.568;11.894;2022-08-01T02:55:32;11.60;;;7.68;;
57858;SDS011;49153;45.568;11.894;2022-08-01T02:58:46;7.38;;;6.68;;
57858;SDS011;49153;45.568;11.894;2022-08-01T03:01:20;8.20;;;7.38;;
57858;SDS011;49153;45.568;11.894;2022-08-01T03:04:15;8.68;;;7.32;;
57858;SDS011;49153;45.568;11.894;2022-08-01T03:06:45;7.97;;;7.20;;
57858;SDS011;49153;45.568;11.894;2022-08-01T03:09:19;8.13;;;6.95;;
57858;SDS011;49153;45.568;11.894;2022-08-01T03:11:46;7.75;;;6.95;;
57858;SDS011;49153;45.568;11.894;2022-08-01T03:14:16;7.40;;;6.70;;
57858;SDS011;49153;45.568;11.894;2022-08-01T03:19:11;7.97;;;6.53;;
57858;SDS011;49153;45.568;11.894;2022-08-01T03:21:39;7.03;;;6.43;;
57858;SDS011;49153;45.568;11.894;2022-08-01T03:24:09;8.80;;;6.97;;
57858;SDS011;49153;45.568;11.894;2022-08-01T03:26:38;7.97;;;6.95;;
57858;SDS011;49153;45.568;11.894;2022-08-01T03:29:08;11.30;;;7.68;;
57858;SDS011;49153;45.568;11.894;2022-08-01T03:31:40;10.85;;;7.75;;
57858;SDS011;49153;45.568;11.894;2022-08-01T03:34:10;7.20;;;6.38;;
57858;SDS011;49153;45.568;11.894;2022-08-01T03:36:38;7.95;;;6.43;;
57858;SDS011;49153;45.568;11.894;2022-08-01T03:39:30;7.15;;;6.22;;
57858;SDS011;49153;45.568;11.894;2022-08-01T03:42:20;8.32;;;6.68;;
57858;SDS011;49153;45.568;11.894;2022-08-01T03:44:59;8.00;;;6.60;;
57858;SDS011;49153;45.568;11.894;2022-08-01T03:47:33;6.88;;;6.22;;
57858;SDS011;49153;45.568;11.894;2022-08-01T03:50:02;10.20;;;7.10;;
57858;SDS011;49153;45.568;11.894;2022-08-01T03:52:31;10.13;;;7.07;;
57858;SDS011;49153;45.568;11.894;2022-08-01T03:55:01;10.35;;;6.95;;
57858;SDS011;49153;45.568;11.894;2022-08-01T03:57:35;9.13;;;7.20;;
57858;SDS011;49153;45.568;11.894;2022-08-01T04:00:02;7.68;;;6.88;;
57858;SDS011;49153;45.568;11.894;2022-08-01T04:02:32;8.45;;;7.38;;
57858;SDS011;49153;45.568;11.894;2022-08-01T04:04:58;9.70;;;7.80;;
57858;SDS011;49153;45.568;11.894;2022-08-01T04:07:27;9.38;;;7.60;;
57858;SDS011;49153;45.568;11.894;2022-08-01T04:09:55;11.73;;;7.75;;
57858;SDS011;49153;45.568;11.894;2022-08-01T04:12:33;9.38;;;7.07;;
57858;SDS011;49153;45.568;11.894;2022-08-01T04:15:08;7.70;;;5.78;;
57858;SDS011;49153;45.568;11.894;2022-08-01T04:17:53;7.47;;;6.43;;
57858;SDS011;49153;45.568;11.894;2022-08-01T04:20:23;8.90;;;6.85;;
57858;SDS011;49153;45.568;11.894;2022-08-01T04:23:25;8.80;;;6.85;;
57858;SDS011;49153;45.568;11.894;2022-08-01T04:26:27;7.18;;;6.47;;
57858;SDS011;49153;45.568;11.894;2022-08-01T04:28:55;7.57;;;6.32;;
57858;SDS011;49153;45.568;11.894;2022-08-01T04:32:11;10.80;;;6.70;;
57858;SDS011;49153;45.568;11.894;2022-08-01T04:35:12;6.32;;;5.72;;
57858;SDS011;49153;45.568;11.894;2022-08-01T04:38:25;7.47;;;5.95;;
57858;SDS011;49153;45.568;11.894;2022-08-01T04:41:48;7.43;;;5.97;;
57858;SDS011;49153;45.568;11.894;2022-08-01T04:44:52;8.48;;;6.57;;
57858;SDS011;49153;45.568;11.894;2022-08-01T04:47:26;6.22;;;5.60;;
57858;SDS011;49153;45.568;11.894;2022-08-01T04:58:24;5.75;;;5.22;;
57858;SDS011;49153;45.568;11.894;2022-08-01T05:01:13;8.05;;;5.63;;
57858;SDS011;49153;45.568;11.894;2022-08-01T05:03:43;6.80;;;5.30;;
57858;SDS011;49153;45.568;11.894;2022-08-01T05:06:29;7.05;;;5.10;;
57858;SDS011;49153;45.568;11.894;2022-08-01T05:12:29;5.82;;;5.18;;
57858;SDS011;49153;45.568;11.894;2022-08-01T05:15:28;6.80;;;4.95;;
57858;SDS011;49153;45.568;11.894;2022-08-01T05:21:10;6.40;;;4.50;;
57858;SDS011;49153;45.568;11.894;2022-08-01T05:23:56;4.78;;;4.32;;
57858;SDS011;49153;45.568;11.894;2022-08-01T05:26:49;7.80;;;4.38;;
57858;SDS011;49153;45.568;11.894;2022-08-01T05:29:31;7.97;;;4.10;;
57858;SDS011;49153;45.568;11.894;2022-08-01T05:32:35;3.83;;;3.45;;
57858;SDS011;49153;45.568;11.894;2022-08-01T05:35:21;5.13;;;3.53;;
57858;SDS011;49153;45.568;11.894;2022-08-01T05:37:49;4.82;;;3.47;;
57858;SDS011;49153;45.568;11.894;2022-08-01T05:40:35;5.20;;;3.58;;
57858;SDS011;49153;45.568;11.894;2022-08-01T05:43:22;4.53;;;3.55;;
57858;SDS011;49153;45.568;11.894;2022-08-01T05:45:48;5.00;;;3.65;;
57858;SDS011;49153;45.568;11.894;2022-08-01T05:48:16;6.70;;;3.80;;
57858;SDS011;49153;45.568;11.894;2022-08-01T05:50:49;4.78;;;3.88;;
57858;SDS011;49153;45.568;11.894;2022-08-01T05:54:14;4.88;;;4.38;;
57858;SDS011;49153;45.568;11.894;2022-08-01T05:57:04;5.35;;;4.15;;
57858;SDS011;49153;45.568;11.894;2022-08-01T05:59:48;6.07;;;4.65;;
57858;SDS011;49153;45.568;11.894;2022-08-01T06:02:18;7.90;;;5.40;;
57858;SDS011;49153;45.568;11.894;2022-08-01T06:05:09;7.88;;;5.38;;
57858;SDS011;49153;45.568;11.894;2022-08-01T06:08:13;7.93;;;6.10;;
57858;SDS011;49153;45.568;11.894;2022-08-01T06:11:27;6.93;;;5.68;;
57858;SDS011;49153;45.568;11.894;2022-08-01T06:13:58;6.78;;;5.32;;
57858;SDS011;49153;45.568;11.894;2022-08-01T06:17:01;5.75;;;5.18;;
57858;SDS011;49153;45.568;11.894;2022-08-01T06:19:31;6.03;;;4.80;;
57858;SDS011;49153;45.568;11.894;2022-08-01T06:22:37;6.07;;;4.93;;
57858;SDS011;49153;45.568;11.894;2022-08-01T06:31:57;7.97;;;5.45;;
57858;SDS011;49153;45.568;11.894;2022-08-01T06:34:48;8.20;;;5.55;;
57858;SDS011;49153;45.568;11.894;2022-08-01T06:37:37;6.20;;;5.53;;
57858;SDS011;49153;45.568;11.894;2022-08-01T06:41:04;7.25;;;5.70;;
57858;SDS011;49153;45.568;11.894;2022-08-01T06:43:39;9.95;;;5.82;;
57858;SDS011;49153;45.568;11.894;2022-08-01T06:46:40;7.10;;;5.80;;
57858;SDS011;49153;45.568;11.894;2022-08-01T06:49:48;5.35;;;4.85;;
57858;SDS011;49153;45.568;11.894;2022-08-01T06:52:28;5.63;;;4.22;;
57858;SDS011;49153;45.568;11.894;2022-08-01T06:55:17;7.00;;;5.07;;
57858;SDS011;49153;45.568;11.894;2022-08-01T06:58:10;7.50;;;5.50;;
57858;SDS011;49153;45.568;11.894;2022-08-01T07:01:12;6.90;;;4.97;;
57858;SDS011;49153;45.568;11.894;2022-08-01T07:04:11;7.68;;;4.90;;
57858;SDS011;49153;45.568;11.894;2022-08-01T07:06:59;7.65;;;5.55;;
57858;SDS011;49153;45.568;11.894;2022-08-01T07:12:00;5.22;;;4.30;;
57858;SDS011;49153;45.568;11.894;2022-08-01T07:15:05;6.05;;;4.65;;
57858;SDS011;49153;45.568;11.894;2022-08-01T07:17:54;5.30;;;4.50;;
57858;SDS011;49153;45.568;11.894;2022-08-01T07:22:54;4.85;;;4.20;;
57858;SDS011;49153;45.568;11.894;2022-08-01T07:25:56;5.88;;;4.15;;
57858;SDS011;49153;45.568;11.894;2022-08-01T07:28:45;4.78;;;3.60;;
57858;SDS011;49153;45.568;11.894;2022-08-01T07:31:18;4.15;;;3.63;;
57858;SDS011;49153;45.568;11.894;2022-08-01T07:37:05;6.55;;;4.00;;
57858;SDS011;49153;45.568;11.894;2022-08-01T07:40:17;3.80;;;3.40;;
57858;SDS011;49153;45.568;11.894;2022-08-01T07:42:57;4.68;;;3.50;;
57858;SDS011;49153;45.568;11.894;2022-08-01T07:46:02;4.63;;;3.63;;
57858;SDS011;49153;45.568;11.894;2022-08-01T07:49:24;5.85;;;3.45;;
57858;SDS011;49153;45.568;11.894;2022-08-01T07:52:56;6.10;;;3.38;;
57858;SDS011;49153;45.568;11.894;2022-08-01T07:56:02;3.22;;;2.90;;
57858;SDS011;49153;45.568;11.894;2022-08-01T08:02:20;3.50;;;3.20;;
57858;SDS011;49153;45.568;11.894;2022-08-01T08:05:27;6.13;;;3.05;;
57858;SDS011;49153;45.568;11.894;2022-08-01T08:09:01;5.78;;;3.20;;
57858;SDS011;49153;45.568;11.894;2022-08-01T08:11:51;3.70;;;2.83;;
57858;SDS011;49153;45.568;11.894;2022-08-01T08:14:17;3.40;;;3.03;;
57858;SDS011;49153;45.568;11.894;2022-08-01T08:16:43;3.65;;;3.05;;
57858;SDS011;49153;45.568;11.894;2022-08-01T08:19:09;3.30;;;3.00;;
57858;SDS011;49153;45.568;11.894;2022-08-01T08:21:35;3.55;;;3.00;;
57858;SDS011;49153;45.568;11.894;2022-08-01T08:24:01;4.28;;;3.08;;
57858;SDS011;49153;45.568;11.894;2022-08-01T08:26:45;2.53;;;2.33;;
57858;SDS011;49153;45.568;11.894;2022-08-01T08:29:15;5.20;;;2.75;;
57858;SDS011;49153;45.568;11.894;2022-08-01T08:31:41;4.78;;;3.10;;
57858;SDS011;49153;45.568;11.894;2022-08-01T08:34:07;2.95;;;2.60;;
57858;SDS011;49153;45.568;11.894;2022-08-01T08:36:32;3.53;;;2.78;;
57858;SDS011;49153;45.568;11.894;2022-08-01T08:38:58;3.47;;;2.55;;
57858;SDS011;49153;45.568;11.894;2022-08-01T08:41:31;3.67;;;2.88;;
57858;SDS011;49153;45.568;11.894;2022-08-01T08:43:57;4.57;;;2.70;;
57858;SDS011;49153;45.568;11.894;2022-08-01T08:46:25;5.88;;;3.13;;
57858;SDS011;49153;45.568;11.894;2022-08-01T08:48:52;3.95;;;2.80;;
57858;SDS011;49153;45.568;11.894;2022-08-01T08:51:18;4.35;;;2.60;;
57858;SDS011;49153;45.568;11.894;2022-08-01T08:53:45;5.80;;;2.88;;
57858;SDS011;49153;45.568;11.894;2022-08-01T08:56:11;3.45;;;2.78;;
57858;SDS011;49153;45.568;11.894;2022-08-01T08:58:38;4.50;;;2.50;;
57858;SDS011;49153;45.568;11.894;2022-08-01T09:01:06;3.72;;;2.38;;
57858;SDS011;49153;45.568;11.894;2022-08-01T09:03:33;5.13;;;2.78;;
57858;SDS011;49153;45.568;11.894;2022-08-01T09:05:59;2.38;;;2.17;;
57858;SDS011;49153;45.568;11.894;2022-08-01T09:08:25;2.50;;;2.30;;
57858;SDS011;49153;45.568;11.894;2022-08-01T09:10:50;2.78;;;2.38;;
57858;SDS011;49153;45.568;11.894;2022-08-01T09:13:16;4.65;;;2.38;;
57858;SDS011;49153;45.568;11.894;2022-08-01T09:15:45;3.42;;;2.35;;
57858;SDS011;49153;45.568;11.894;2022-08-01T09:18:32;2.53;;;2.30;;
57858;SDS011;49153;45.568;11.894;2022-08-01T09:26:15;4.15;;;2.15;;
57858;SDS011;49153;45.568;11.894;2022-08-01T09:28:42;2.15;;;1.90;;
57858;SDS011;49153;45.568;11.894;2022-08-01T09:31:09;2.03;;;1.88;;
57858;SDS011;49153;45.568;11.894;2022-08-01T09:33:55;2.78;;;2.45;;
57858;SDS011;49153;45.568;11.894;2022-08-01T09:36:26;2.22;;;2.00;;
57858;SDS011;49153;45.568;11.894;2022-08-01T09:39:15;2.92;;;2.13;;
57858;SDS011;49153;45.568;11.894;2022-08-01T09:41:40;2.78;;;2.10;;
57858;SDS011;49153;45.568;11.894;2022-08-01T09:44:06;2.58;;;2.00;;
57858;SDS011;49153;45.568;11.894;2022-08-01T09:46:32;2.08;;;1.88;;
57858;SDS011;49153;45.568;11.894;2022-08-01T09:48:58;1.67;;;1.58;;
57858;SDS011;49153;45.568;11.894;2022-08-01T09:53:55;2.25;;;2.05;;
57858;SDS011;49153;45.568;11.894;2022-08-01T09:56:21;2.58;;;2.13;;
57858;SDS011;49153;45.568;11.894;2022-08-01T09:59:06;2.72;;;2.20;;
57858;SDS011;49153;45.568;11.894;2022-08-01T10:01:42;3.45;;;2.20;;
57858;SDS011;49153;45.568;11.894;2022-08-01T10:04:10;3.92;;;2.00;;
57858;SDS011;49153;45.568;11.894;2022-08-01T10:06:45;2.65;;;2.03;;
57858;SDS011;49153;45.568;11.894;2022-08-01T10:09:28;3.92;;;2.20;;
57858;SDS011;49153;45.568;11.894;2022-08-01T10:11:54;3.30;;;2.00;;
57858;SDS011;49153;45.568;11.894;2022-08-01T10:14:22;2.33;;;2.13;;
57858;SDS011;49153;45.568;11.894;2022-08-01T10:16:50;2.13;;;2.00;;
57858;SDS011;49153;45.568;11.894;2022-08-01T10:19:17;2.55;;;2.00;;
57858;SDS011;49153;45.568;11.894;2022-08-01T10:21:45;2.92;;;1.63;;
57858;SDS011;49153;45.568;11.894;2022-08-01T10:24:14;2.13;;;2.03;;
57858;SDS011;49153;45.568;11.894;2022-08-01T10:26:40;4.43;;;2.00;;
57858;SDS011;49153;45.568;11.894;2022-08-01T10:29:08;3.28;;;2.20;;
57858;SDS011;49153;45.568;11.894;2022-08-01T10:31:34;2.75;;;2.10;;
57858;SDS011;49153;45.568;11.894;2022-08-01T10:34:01;2.17;;;2.05;;
57858;SDS011;49153;45.568;11.894;2022-08-01T10:36:27;4.32;;;1.98;;
57858;SDS011;49153;45.568;11.894;2022-08-01T10:38:54;2.30;;;1.90;;
57858;SDS011;49153;45.568;11.894;2022-08-01T10:41:20;2.65;;;1.92;;
57858;SDS011;49153;45.568;11.894;2022-08-01T10:43:46;5.47;;;2.20;;
57858;SDS011;49153;45.568;11.894;2022-08-01T10:46:12;3.13;;;1.98;;
57858;SDS011;49153;45.568;11.894;2022-08-01T10:48:49;2.85;;;2.08;;
57858;SDS011;49153;45.568;11.894;2022-08-01T10:51:20;2.05;;;1.80;;
57858;SDS011;49153;45.568;11.894;2022-08-01T10:53:55;2.13;;;1.92;;
57858;SDS011;49153;45.568;11.894;2022-08-01T10:56:22;2.50;;;2.30;;
57858;SDS011;49153;45.568;11.894;2022-08-01T10:58:48;2.47;;;2.28;;
57858;SDS011;49153;45.568;11.894;2022-08-01T11:03:42;3.50;;;2.50;;
57858;SDS011;49153;45.568;11.894;2022-08-01T11:06:16;2.40;;;2.20;;
57858;SDS011;49153;45.568;11.894;2022-08-01T11:08:50;3.85;;;2.25;;
57858;SDS011;49153;45.568;11.894;2022-08-01T11:11:20;2.80;;;2.15;;
57858;SDS011;49153;45.568;11.894;2022-08-01T11:14:07;2.95;;;2.25;;
57858;SDS011;49153;45.568;11.894;2022-08-01T11:16:34;2.78;;;2.25;;
57858;SDS011;49153;45.568;11.894;2022-08-01T11:19:02;2.67;;;2.15;;
57858;SDS011;49153;45.568;11.894;2022-08-01T11:27:17;3.50;;;2.03;;
57858;SDS011;49153;45.568;11.894;2022-08-01T11:35:31;3.05;;;2.08;;
57858;SDS011;49153;45.568;11.894;2022-08-01T11:37:56;2.60;;;1.90;;
57858;SDS011;49153;45.568;11.894;2022-08-01T11:40:42;2.22;;;2.03;;
57858;SDS011;49153;45.568;11.894;2022-08-01T11:45:46;2.42;;;1.95;;
57858;SDS011;49153;45.568;11.894;2022-08-01T11:48:21;2.60;;;2.08;;
57858;SDS011;49153;45.568;11.894;2022-08-01T11:50:49;2.90;;;2.00;;
57858;SDS011;49153;45.568;11.894;2022-08-01T11:53:16;1.98;;;1.80;;
57858;SDS011;49153;45.568;11.894;2022-08-01T11:55:47;2.85;;;1.80;;
57858;SDS011;49153;45.568;11.894;2022-08-01T11:58:15;2.10;;;1.60;;
57858;SDS011;49153;45.568;11.894;2022-08-01T12:00:55;2.92;;;1.95;;
57858;SDS011;49153;45.568;11.894;2022-08-01T12:03:29;1.83;;;1.73;;
57858;SDS011;49153;45.568;11.894;2022-08-01T12:05:57;2.78;;;1.73;;
57858;SDS011;49153;45.568;11.894;2022-08-01T12:08:32;2.17;;;1.80;;
57858;SDS011;49153;45.568;11.894;2022-08-01T12:11:00;2.55;;;1.60;;
57858;SDS011;49153;45.568;11.894;2022-08-01T12:13:27;2.05;;;1.58;;
57858;SDS011;49153;45.568;11.894;2022-08-01T12:16:07;2.20;;;2.00;;
57858;SDS011;49153;45.568;11.894;2022-08-01T12:18:40;2.10;;;1.80;;
57858;SDS011;49153;45.568;11.894;2022-08-01T12:21:07;3.72;;;1.83;;
57858;SDS011;49153;45.568;11.894;2022-08-01T12:23:33;2.97;;;1.80;;
57858;SDS011;49153;45.568;11.894;2022-08-01T12:25:58;2.08;;;1.88;;
57858;SDS011;49153;45.568;11.894;2022-08-01T12:28:25;2.88;;;1.77;;
57858;SDS011;49153;45.568;11.894;2022-08-01T12:30:50;3.05;;;1.70;;
57858;SDS011;49153;45.568;11.894;2022-08-01T12:33:17;4.10;;;1.63;;
57858;SDS011;49153;45.568;11.894;2022-08-01T12:35:43;2.30;;;1.85;;
57858;SDS011;49153;45.568;11.894;2022-08-01T12:38:21;2.83;;;1.42;;
57858;SDS011;49153;45.568;11.894;2022-08-01T12:40:47;1.75;;;1.40;;
57858;SDS011;49153;45.568;11.894;2022-08-01T12:43:17;5.80;;;1.58;;
57858;SDS011;49153;45.568;11.894;2022-08-01T12:45:44;1.67;;;1.58;;
57858;SDS011;49153;45.568;11.894;2022-08-01T12:48:12;2.65;;;1.48;;
57858;SDS011;49153;45.568;11.894;2022-08-01T12:50:41;1.60;;;1.50;;
57858;SDS011;49153;45.568;11.894;2022-08-01T12:53:08;2.43;;;1.57;;
57858;SDS011;49153;45.568;11.894;2022-08-01T12:55:44;2.85;;;1.50;;
57858;SDS011;49153;45.568;11.894;2022-08-01T12:58:16;2.13;;;1.48;;
57858;SDS011;49153;45.568;11.894;2022-08-01T13:00:44;2.95;;;1.50;;
57858;SDS011;49153;45.568;11.894;2022-08-01T13:08:19;1.67;;;1.58;;
57858;SDS011;49153;45.568;11.894;2022-08-01T13:10:45;1.77;;;1.40;;
57858;SDS011;49153;45.568;11.894;2022-08-01T13:13:12;1.75;;;1.50;;
57858;SDS011;49153;45.568;11.894;2022-08-01T13:15:39;1.50;;;1.40;;
57858;SDS011;49153;45.568;11.894;2022-08-01T13:18:28;2.00;;;1.50;;
57858;SDS011;49153;45.568;11.894;2022-08-01T13:21:16;2.45;;;1.40;;
57858;SDS011;49153;45.568;11.894;2022-08-01T13:29:15;1.65;;;1.55;;
57858;SDS011;49153;45.568;11.894;2022-08-01T13:31:42;2.15;;;1.27;;
57858;SDS011;49153;45.568;11.894;2022-08-01T13:34:08;2.97;;;1.55;;
57858;SDS011;49153;45.568;11.894;2022-08-01T13:36:34;2.20;;;1.50;;
57858;SDS011;49153;45.568;11.894;2022-08-01T13:39:01;2.42;;;1.48;;
57858;SDS011;49153;45.568;11.894;2022-08-01T13:41:45;5.28;;;1.65;;
57858;SDS011;49153;45.568;11.894;2022-08-01T13:44:12;1.63;;;1.50;;
57858;SDS011;49153;45.568;11.894;2022-08-01T13:46:38;1.80;;;1.48;;
57858;SDS011;49153;45.568;11.894;2022-08-01T13:49:05;3.75;;;1.50;;
57858;SDS011;49153;45.568;11.894;2022-08-01T13:51:31;1.60;;;1.50;;
57858;SDS011;49153;45.568;11.894;2022-08-01T13:53:57;2.38;;;1.60;;
57858;SDS011;49153;45.568;11.894;2022-08-01T13:56:23;5.10;;;1.70;;
57858;SDS011;49153;45.568;11.894;2022-08-01T13:58:49;2.83;;;1.52;;
57858;SDS011;49153;45.568;11.894;2022-08-01T14:01:15;1.55;;;1.30;;
57858;SDS011;49153;45.568;11.894;2022-08-01T14:03:41;1.98;;;1.38;;
57858;SDS011;49153;45.568;11.894;2022-08-01T14:06:06;2.55;;;1.48;;
57858;SDS011;49153;45.568;11.894;2022-08-01T14:08:49;3.28;;;1.60;;
57858;SDS011;49153;45.568;11.894;2022-08-01T14:11:15;1.48;;;1.38;;
57858;SDS011;49153;45.568;11.894;2022-08-01T14:13:40;4.00;;;1.60;;
57858;SDS011;49153;45.568;11.894;2022-08-01T14:16:06;2.63;;;1.50;;
57858;SDS011;49153;45.568;11.894;2022-08-01T14:18:32;2.35;;;1.70;;
57858;SDS011;49153;45.568;11.894;2022-08-01T14:20:58;1.58;;;1.48;;
57858;SDS011;49153;45.568;11.894;2022-08-01T14:23:24;2.17;;;1.55;;
57858;SDS011;49153;45.568;11.894;2022-08-01T14:25:50;2.72;;;1.60;;
57858;SDS011;49153;45.568;11.894;2022-08-01T14:28:15;2.67;;;1.38;;
57858;SDS011;49153;45.568;11.894;2022-08-01T14:30:41;2.60;;;1.67;;
57858;SDS011;49153;45.568;11.894;2022-08-01T14:33:08;4.05;;;1.60;;
57858;SDS011;49153;45.568;11.894;2022-08-01T14:35:34;2.03;;;1.48;;
57858;SDS011;49153;45.568;11.894;2022-08-01T14:38:07;1.75;;;1.50;;
57858;SDS011;49153;45.568;11.894;2022-08-01T14:40:33;1.60;;;1.50;;
57858;SDS011;49153;45.568;11.894;2022-08-01T14:42:59;2.47;;;1.48;;
57858;SDS011;49153;45.568;11.894;2022-08-01T14:45:26;2.25;;;1.45;;
57858;SDS011;49153;45.568;11.894;2022-08-01T14:47:52;2.20;;;1.50;;
57858;SDS011;49153;45.568;11.894;2022-08-01T14:50:18;2.80;;;1.50;;
57858;SDS011;49153;45.568;11.894;2022-08-01T14:52:44;3.78;;;1.50;;
57858;SDS011;49153;45.568;11.894;2022-08-01T14:55:10;4.18;;;1.83;;
57858;SDS011;49153;45.568;11.894;2022-08-01T14:57:37;2.22;;;1.60;;
57858;SDS011;49153;45.568;11.894;2022-08-01T15:00:05;1.98;;;1.40;;
57858;SDS011;49153;45.568;11.894;2022-08-01T15:02:35;3.85;;;1.50;;
57858;SDS011;49153;45.568;11.894;2022-08-01T15:05:00;1.90;;;1.40;;
57858;SDS011;49153;45.568;11.894;2022-08-01T15:07:26;2.25;;;1.50;;
57858;SDS011;49153;45.568;11.894;2022-08-01T15:09:51;2.63;;;1.50;;
57858;SDS011;49153;45.568;11.894;2022-08-01T15:12:17;5.38;;;1.85;;
57858;SDS011;49153;45.568;11.894;2022-08-01T15:14:43;2.55;;;1.50;;
57858;SDS011;49153;45.568;11.894;2022-08-01T15:17:16;1.65;;;1.55;;
57858;SDS011;49153;45.568;11.894;2022-08-01T15:19:47;1.38;;;1.27;;
57858;SDS011;49153;45.568;11.894;2022-08-01T15:22:13;2.42;;;1.50;;
57858;SDS011;49153;45.568;11.894;2022-08-01T15:24:39;8.40;;;2.03;;
57858;SDS011;49153;45.568;11.894;2022-08-01T15:27:05;2.90;;;1.55;;
57858;SDS011;49153;45.568;11.894;2022-08-01T15:29:30;2.40;;;1.50;;
57858;SDS011;49153;45.568;11.894;2022-08-01T15:31:56;2.88;;;1.42;;
57858;SDS011;49153;45.568;11.894;2022-08-01T15:34:22;2.03;;;1.70;;
57858;SDS011;49153;45.568;11.894;2022-08-01T15:36:48;4.40;;;1.40;;
57858;SDS011;49153;45.568;11.894;2022-08-01T15:39:13;1.85;;;1.30;;
57858;SDS011;49153;45.568;11.894;2022-08-01T15:41:40;2.50;;;1.40;;
57858;SDS011;49153;45.568;11.894;2022-08-01T15:44:05;2.95;;;1.73;;
57858;SDS011;49153;45.568;11.894;2022-08-01T15:46:47;2.45;;;1.42;;
57858;SDS011;49153;45.568;11.894;2022-08-01T15:49:13;4.32;;;1.67;;
57858;SDS011;49153;45.568;11.894;2022-08-01T15:51:39;3.50;;;1.25;;
57858;SDS011;49153;45.568;11.894;2022-08-01T15:54:05;2.65;;;1.60;;
57858;SDS011;49153;45.568;11.894;2022-08-01T15:56:34;4.18;;;1.50;;
57858;SDS011;49153;45.568;11.894;2022-08-01T15:59:00;1.83;;;1.37;;
57858;SDS011;49153;45.568;11.894;2022-08-01T16:01:26;1.70;;;1.60;;
57858;SDS011;49153;45.568;11.894;2022-08-01T16:03:52;4.95;;;1.85;;
57858;SDS011;49153;45.568;11.894;2022-08-01T16:06:18;2.47;;;1.40;;
57858;SDS011;49153;45.568;11.894;2022-08-01T16:08:44;6.15;;;1.63;;
57858;SDS011;49153;45.568;11.894;2022-08-01T16:11:10;3.78;;;1.50;;
57858;SDS011;49153;45.568;11.894;2022-08-01T16:13:35;2.38;;;1.30;;
57858;SDS011;49153;45.568;11.894;2022-08-01T16:16:01;4.30;;;1.60;;
57858;SDS011;49153;45.568;11.894;2022-08-01T16:18:29;2.92;;;1.73;;
57858;SDS011;49153;45.568;11.894;2022-08-01T16:20:56;3.78;;;1.50;;
57858;SDS011;49153;45.568;11.894;2022-08-01T16:23:23;2.60;;;1.48;;
57858;SDS011;49153;45.568;11.894;2022-08-01T16:25:48;2.92;;;1.50;;
57858;SDS011;49153;45.568;11.894;2022-08-01T16:28:15;1.92;;;1.50;;
57858;SDS011;49153;45.568;11.894;2022-08-01T16:30:40;2.40;;;1.40;;
57858;SDS011;49153;45.568;11.894;2022-08-01T16:33:06;5.57;;;1.58;;
57858;SDS011;49153;45.568;11.894;2022-08-01T16:35:32;3.35;;;1.35;;
57858;SDS011;49153;45.568;11.894;2022-08-01T16:37:57;1.50;;;1.40;;
57858;SDS011;49153;45.568;11.894;2022-08-01T16:40:22;2.25;;;1.60;;
57858;SDS011;49153;45.568;11.894;2022-08-01T16:42:48;3.67;;;1.45;;
57858;SDS011;49153;45.568;11.894;2022-08-01T16:45:13;2.00;;;1.55;;
57858;SDS011;49153;45.568;11.894;2022-08-01T16:47:40;3.33;;;1.40;;
57858;SDS011;49153;45.568;11.894;2022-08-01T16:50:05;2.40;;;1.60;;
57858;SDS011;49153;45.568;11.894;2022-08-01T16:52:33;2.50;;;1.40;;
57858;SDS011;49153;45.568;11.894;2022-08-01T16:54:59;3.13;;;1.80;;
57858;SDS011;49153;45.568;11.894;2022-08-01T16:57:24;1.80;;;1.50;;
57858;SDS011;49153;45.568;11.894;2022-08-01T16:59:50;2.35;;;1.38;;
57858;SDS011;49153;45.568;11.894;2022-08-01T17:02:15;3.10;;;1.58;;
57858;SDS011;49153;45.568;11.894;2022-08-01T17:04:41;3.75;;;1.65;;